• Join FlightAware (Why Join?)
  • Login
  • US Flag 
08:51AM EDT


 

Airport Tracker/Info


-or-


 

Live Flight TrackerFlight Track Log ✈ AWE530 ✈ 24-Jun-2013 ✈ KPHX - KRNO

Flight Track Log - Related Links

Times and Time Zones

All times are in EDT time to prevent confusion due to time zone crossing. See the AWE530 flight status page for this flight to view local times or setup timezone preferences in your user account.

Time Position Orientation Groundspeed Altitude Reporting Facility
EDT Latitude Longitude Course Direction KTS MPH feet Rate Location/Type
01:55AM 33.4333 -112.0333 270° West 132 152 2,100  Level Phoenix TRACON
01:56AM 33.4333 -112.1000 270° West 231 266 3,600 1,680 Climbing Phoenix TRACON
01:57AM 33.4336 -112.1500 270° West 240 276 5,300 3,060 Climbing Albuquerque Center
01:58AM 33.4897 -112.2047 321° Northwest 295 339 8,400 2,820 Climbing Albuquerque Center
01:59AM 33.5761 -112.2206 351° North 315 362 11,000 1,860 Climbing Albuquerque Center
02:00AM 33.6797 -112.2456 349° North 382 440 12,300 1,740 Climbing Albuquerque Center
02:01AM 33.7933 -112.2747 348° North 409 471 14,600 2,400 Climbing Albuquerque Center
02:02AM 33.9092 -112.3058 347° North 421 484 17,200 1,980 Climbing Albuquerque Center
02:03AM 33.9892 -112.4072 314° West 420 483 18,700 1,560 Climbing Albuquerque Center
02:04AM 34.0661 -112.5178 310° West 428 493 20,400 1,500 Climbing Albuquerque Center
02:05AM 34.1442 -112.6322 310° West 439 505 21,800 1,500 Climbing Albuquerque Center
02:06AM 34.2247 -112.7497 310° West 449 517 23,500 1,440 Climbing Albuquerque Center
02:07AM 34.3050 -112.8667 310° West 452 520 24,800 1,200 Climbing Albuquerque Center
02:08AM 34.3858 -112.9872 309° West 457 526 26,000 1,140 Climbing Albuquerque Center
02:09AM 34.4664 -113.1044 310° West 462 532 27,100 1,260 Climbing Albuquerque Center
02:10AM 34.5653 -113.2517 309° West 468 539 28,600 1,500 Climbing Albuquerque Center
02:11AM 34.6458 -113.3719 309° West 464 534 30,200 1,440 Climbing Albuquerque Center
02:12AM 34.7261 -113.4908 309° West 458 527 31,600 1,620 Climbing Albuquerque Center
02:13AM 34.8028 -113.6086 308° West 450 518 33,500 1,860 Climbing Albuquerque Center
02:14AM 34.8803 -113.7247 309° West 444 511 35,400 1,920 Climbing Albuquerque Center
02:15AM 34.9550 -113.8361 309° West 431 496 37,400 1,200 Climbing Albuquerque Center
02:16AM 35.0256 -113.9458 308° West 417 480 37,900 240 Climbing Albuquerque Center
02:17AM 35.1061 -114.0689 309° West 422 486 38,000  Climbing Albuquerque Center
02:18AM 35.1947 -114.2033 309° West 423 487 38,000 -60 Level Los Angeles Center
02:19AM 35.2669 -114.3142 309° West 418 481 37,900 -60 Descending Los Angeles Center
02:20AM 35.3392 -114.4222 309° West 412 474 37,900  Level Los Angeles Center
02:21AM 35.4103 -114.5336 308° West 413 475 37,900  Level Los Angeles Center
02:22AM 35.4803 -114.6428 308° West 409 471 38,000  Climbing Los Angeles Center
02:23AM 35.5658 -114.7761 308° West 412 474 38,000 -60 Level Los Angeles Center
02:25AM 35.6366 -114.8868 308° West  Level FlightAware Approximate
02:25AM 35.7094 -114.9950 308° West 411 473 37,900  Level Los Angeles Center
02:27AM 35.7794 -115.1056 308° West 410 472 38,000  Climbing Los Angeles Center
02:28AM 35.8494 -115.2158 308° West 408 470 37,900  Descending Los Angeles Center
02:29AM 35.9347 -115.3503 308° West 413 475 38,000  Climbing Los Angeles Center
02:30AM 35.9775 -115.4178 308° West 414 476 38,000 -60 Level Los Angeles Center
02:31AM 36.0758 -115.5744 308° West 410 472 37,900 -60 Descending Los Angeles Center
02:32AM 36.1467 -115.6886 308° West 411 473 37,900  Level Los Angeles Center
02:33AM 36.2192 -115.8044 308° West 417 480 37,900  Level Los Angeles Center
02:34AM 36.2939 -115.9228 308° West 417 480 38,000  Climbing Los Angeles Center
02:35AM 36.3697 -116.0311 311° West 417 480 38,000  Level Los Angeles Center
02:36AM 36.4486 -116.1364 313° West 417 480 38,000 -60 Level Los Angeles Center
02:37AM 36.5286 -116.2408 314° West 412 474 37,900 -60 Descending Los Angeles Center
02:38AM 36.6039 -116.3422 313° West 408 470 37,900  Level Los Angeles Center
02:39AM 36.6806 -116.4481 312° West 411 473 37,900  Level Los Angeles Center
02:40AM 36.7553 -116.5525 312° West 406 467 37,900  Level Los Angeles Center
02:41AM 36.8308 -116.6567 312° West 405 466 37,900  Level Los Angeles Center
02:42AM 36.9214 -116.7806 312° West 402 463 38,000  Climbing Los Angeles Center
02:43AM 36.9964 -116.8867 312° West 405 466 37,900 -540 Descending Los Angeles Center
02:44AM 37.0733 -116.9892 313° West 403 464 37,000 -960 Descending Los Angeles Center
02:45AM 37.1614 -117.0822 320° Northwest 411 473 36,000 -1,020 Descending Los Angeles Center
02:46AM 37.2508 -117.1756 320° Northwest 415 478 35,000 -1,020 Descending Los Angeles Center
02:47AM 37.3425 -117.2708 320° Northwest 424 488 34,000 -600 Descending Los Angeles Center
02:48AM 37.4347 -117.3672 320° Northwest 428 493 33,900  Descending Los Angeles Center
02:49AM 37.5261 -117.4650 320° Northwest 431 496 34,000  Climbing Oakland Center
02:50AM 37.6183 -117.5603 321° Northwest 427 491 33,900 -600 Descending Oakland Center
02:51AM 37.7094 -117.6572 320° Northwest 426 490 32,900 -1,020 Descending Oakland Center
02:52AM 37.8039 -117.7567 320° Northwest 435 501 31,900 -1,020 Descending Oakland Center
02:53AM 37.8992 -117.8575 320° Northwest 442 509 30,900 -1,020 Descending Oakland Center
02:54AM 37.9944 -117.9606 320° Northwest 447 514 29,900 -1,020 Descending Oakland Center
02:55AM 38.0883 -118.0611 320° Northwest 440 506 28,900 -960 Descending Oakland Center
02:56AM 38.1903 -118.1717 320° Northwest 428 493 28,000 -540 Descending Oakland Center
02:57AM 38.2819 -118.2697 320° Northwest 429 494 27,900 -60 Descending Oakland Center
02:58AM 38.3781 -118.3733 320° Northwest 446 513 27,900  Level Oakland Center
02:59AM 38.4728 -118.4750 320° Northwest 445 512 28,000  Climbing Oakland Center
03:00AM 38.5672 -118.5800 319° Northwest 448 516 27,900 -60 Descending Oakland Center
03:01AM 38.6611 -118.6828 319° Northwest 444 511 27,900  Level Oakland Center
03:02AM 38.7508 -118.7828 319° Northwest 428 493 28,000 -540 Climbing Oakland Center
03:03AM 38.8286 -118.8686 319° Northwest 373 429 26,900 -1,440 Descending Oakland Center
03:04AM 38.9056 -118.9536 319° Northwest 365 420 25,200 -1,860 Descending Oakland Center
03:05AM 38.9792 -119.0356 319° Northwest 352 405 23,200 -1,740 Descending Oakland Center
03:06AM 39.0506 -119.1147 319° Northwest 340 391 21,700 -1,740 Descending Oakland Center
03:07AM 39.1164 -119.1903 318° Northwest 320 368 19,800 -1,980 Descending Oakland Center
03:08AM 39.1828 -119.2636 319° Northwest 314 361 17,800 -2,100 Descending Oakland Center
03:09AM 39.2511 -119.3417 319° Northwest 324 373 15,600 -2,160 Descending Oakland Center
03:10AM 39.3244 -119.4233 319° Northwest 341 392 13,500 -1,680 Descending Oakland Center
03:11AM 39.3967 -119.5042 319° Northwest 343 395 12,300 -1,260 Descending Oakland Center
03:12AM 39.4708 -119.5594 330° Northwest 323 372 11,000 -1,200 Descending Oakland Center
03:13AM 39.5503 -119.5875 345° North 299 344 9,900 -900 Descending Oakland Center
03:14AM 39.6208 -119.6172 342° North 280 322 9,300 -600 Descending Oakland Center
03:15AM 39.6600 -119.6711 313° West 231 266 8,700 -600 Descending Oakland Center
03:16AM 39.6842 -119.7339 297° West 210 242 8,200 -420 Descending Oakland Center
03:17AM 39.6683 -119.7700 240° Southwest 192 221 7,900 -300 Descending Oakland Center
03:18AM 39.6294 -119.7714 182° South 183 211 7,600 -1,080 Descending Oakland Center
03:19AM 39.5833 -119.7667 175° South 139 160 5,800 -1,320 Descending Northern Cal TRACON
03:20AM 39.5333 -119.7667 180° South 139 160 5,000 -840 Descending Northern Cal TRACON
03:22AM 39.4991 -119.7681 180° South  Level Estimated